sensor_id;sensor_type;location;lat;lon;timestamp;temperature;humidity
5246;DHT22;54412;51.206;6.888;2022-10-17T00:01:53;16.60;99.90
5246;DHT22;54412;51.206;6.888;2022-10-17T00:04:19;16.70;99.90
5246;DHT22;54412;51.206;6.888;2022-10-17T00:06:44;16.70;99.90
5246;DHT22;54412;51.206;6.888;2022-10-17T00:09:10;16.70;99.90
5246;DHT22;54412;51.206;6.888;2022-10-17T00:11:36;16.70;99.90
5246;DHT22;54412;51.206;6.888;2022-10-17T00:14:01;16.70;99.90
5246;DHT22;54412;51.206;6.888;2022-10-17T00:16:30;16.70;99.90
5246;DHT22;54412;51.206;6.888;2022-10-17T00:19:01;16.70;99.90
5246;DHT22;54412;51.206;6.888;2022-10-17T00:21:28;16.70;99.90
5246;DHT22;54412;51.206;6.888;2022-10-17T00:23:54;16.80;99.90
5246;DHT22;54412;51.206;6.888;2022-10-17T00:26:20;16.80;99.90
5246;DHT22;54412;51.206;6.888;2022-10-17T00:28:51;16.80;99.90
5246;DHT22;54412;51.206;6.888;2022-10-17T00:31:18;16.80;99.90
5246;DHT22;54412;51.206;6.888;2022-10-17T00:33:45;16.80;99.90
5246;DHT22;54412;51.206;6.888;2022-10-17T00:36:23;16.80;99.90
5246;DHT22;54412;51.206;6.888;2022-10-17T00:38:56;16.80;99.90
5246;DHT22;54412;51.206;6.888;2022-10-17T00:41:29;16.80;99.90
5246;DHT22;54412;51.206;6.888;2022-10-17T00:46:36;16.80;99.90
5246;DHT22;54412;51.206;6.888;2022-10-17T00:49:07;16.90;99.90
5246;DHT22;54412;51.206;6.888;2022-10-17T00:51:42;16.90;99.90
5246;DHT22;54412;51.206;6.888;2022-10-17T00:54:21;16.90;99.90
5246;DHT22;54412;51.206;6.888;2022-10-17T00:56:50;17.00;99.90
5246;DHT22;54412;51.206;6.888;2022-10-17T00:59:18;17.00;99.90
5246;DHT22;54412;51.206;6.888;2022-10-17T01:01:58;17.00;99.90
5246;DHT22;54412;51.206;6.888;2022-10-17T01:04:26;17.00;99.90
5246;DHT22;54412;51.206;6.888;2022-10-17T01:06:52;17.00;99.90
5246;DHT22;54412;51.206;6.888;2022-10-17T01:09:18;17.00;99.90
5246;DHT22;54412;51.206;6.888;2022-10-17T01:11:51;17.00;99.90
5246;DHT22;54412;51.206;6.888;2022-10-17T01:26:35;17.00;99.90
5246;DHT22;54412;51.206;6.888;2022-10-17T01:29:27;17.00;99.90
5246;DHT22;54412;51.206;6.888;2022-10-17T01:37:20;17.10;99.90
5246;DHT22;54412;51.206;6.888;2022-10-17T01:40:13;17.10;99.90
5246;DHT22;54412;51.206;6.888;2022-10-17T01:42:58;17.10;99.90
5246;DHT22;54412;51.206;6.888;2022-10-17T01:48:17;17.10;99.90
5246;DHT22;54412;51.206;6.888;2022-10-17T01:50:51;17.10;99.90
5246;DHT22;54412;51.206;6.888;2022-10-17T01:53:26;17.10;99.90
5246;DHT22;54412;51.206;6.888;2022-10-17T01:56:00;17.10;99.90
5246;DHT22;54412;51.206;6.888;2022-10-17T01:58:32;17.10;99.90
5246;DHT22;54412;51.206;6.888;2022-10-17T02:01:04;17.10;99.90
5246;DHT22;54412;51.206;6.888;2022-10-17T02:03:33;17.10;99.90
5246;DHT22;54412;51.206;6.888;2022-10-17T02:06:00;17.10;99.90
5246;DHT22;54412;51.206;6.888;2022-10-17T02:08:43;17.10;99.90
5246;DHT22;54412;51.206;6.888;2022-10-17T02:11:23;17.10;99.90
5246;DHT22;54412;51.206;6.888;2022-10-17T02:17:43;17.10;99.90
5246;DHT22;54412;51.206;6.888;2022-10-17T02:25:47;17.10;99.90
5246;DHT22;54412;51.206;6.888;2022-10-17T02:28:30;17.10;99.90
5246;DHT22;54412;51.206;6.888;2022-10-17T02:31:07;17.10;99.90
5246;DHT22;54412;51.206;6.888;2022-10-17T02:33:47;17.10;99.90
5246;DHT22;54412;51.206;6.888;2022-10-17T02:36:22;17.10;99.90
5246;DHT22;54412;51.206;6.888;2022-10-17T02:38:54;17.20;99.90
5246;DHT22;54412;51.206;6.888;2022-10-17T02:41:22;17.10;99.90
5246;DHT22;54412;51.206;6.888;2022-10-17T02:43:50;17.10;99.90
5246;DHT22;54412;51.206;6.888;2022-10-17T02:46:20;17.20;99.90
5246;DHT22;54412;51.206;6.888;2022-10-17T02:51:59;17.10;99.90
5246;DHT22;54412;51.206;6.888;2022-10-17T02:54:51;17.20;99.90
5246;DHT22;54412;51.206;6.888;2022-10-17T02:57:49;17.20;99.90
5246;DHT22;54412;51.206;6.888;2022-10-17T03:00:19;17.20;99.90
5246;DHT22;54412;51.206;6.888;2022-10-17T03:02:52;17.20;99.90
5246;DHT22;54412;51.206;6.888;2022-10-17T03:05:26;17.20;99.90
5246;DHT22;54412;51.206;6.888;2022-10-17T03:07:54;17.20;99.90
5246;DHT22;54412;51.206;6.888;2022-10-17T03:10:21;17.20;99.90
5246;DHT22;54412;51.206;6.888;2022-10-17T03:12:47;17.20;99.90
5246;DHT22;54412;51.206;6.888;2022-10-17T03:15:13;17.20;99.90
5246;DHT22;54412;51.206;6.888;2022-10-17T03:17:39;17.20;99.90
5246;DHT22;54412;51.206;6.888;2022-10-17T03:20:06;17.30;99.90
5246;DHT22;54412;51.206;6.888;2022-10-17T03:22:32;17.20;99.90
5246;DHT22;54412;51.206;6.888;2022-10-17T03:24:58;17.30;99.90
5246;DHT22;54412;51.206;6.888;2022-10-17T03:27:24;17.30;99.90
5246;DHT22;54412;51.206;6.888;2022-10-17T03:29:50;17.30;99.90
5246;DHT22;54412;51.206;6.888;2022-10-17T03:32:15;17.30;99.90
5246;DHT22;54412;51.206;6.888;2022-10-17T03:34:41;17.30;99.90
5246;DHT22;54412;51.206;6.888;2022-10-17T03:37:07;17.30;99.90
5246;DHT22;54412;51.206;6.888;2022-10-17T03:39:32;17.30;99.90
5246;DHT22;54412;51.206;6.888;2022-10-17T03:41:58;17.30;99.90
5246;DHT22;54412;51.206;6.888;2022-10-17T03:44:24;17.30;99.90
5246;DHT22;54412;51.206;6.888;2022-10-17T03:46:49;17.30;99.90
5246;DHT22;54412;51.206;6.888;2022-10-17T03:49:15;17.30;99.90
5246;DHT22;54412;51.206;6.888;2022-10-17T03:51:40;17.30;99.90
5246;DHT22;54412;51.206;6.888;2022-10-17T03:54:06;17.40;99.90
5246;DHT22;54412;51.206;6.888;2022-10-17T03:56:32;17.40;99.90
5246;DHT22;54412;51.206;6.888;2022-10-17T03:58:57;17.40;99.90
5246;DHT22;54412;51.206;6.888;2022-10-17T04:01:23;17.40;99.90
5246;DHT22;54412;51.206;6.888;2022-10-17T04:03:51;17.40;99.90
5246;DHT22;54412;51.206;6.888;2022-10-17T04:06:19;17.40;99.90
5246;DHT22;54412;51.206;6.888;2022-10-17T04:08:46;17.40;99.90
5246;DHT22;54412;51.206;6.888;2022-10-17T04:11:17;17.40;99.90
5246;DHT22;54412;51.206;6.888;2022-10-17T04:13:44;17.30;99.90
5246;DHT22;54412;51.206;6.888;2022-10-17T04:16:13;17.40;99.90
5246;DHT22;54412;51.206;6.888;2022-10-17T04:18:40;17.40;99.90
5246;DHT22;54412;51.206;6.888;2022-10-17T04:21:07;17.40;99.90
5246;DHT22;54412;51.206;6.888;2022-10-17T04:23:34;17.40;99.90
5246;DHT22;54412;51.206;6.888;2022-10-17T04:26:01;17.40;99.90
5246;DHT22;54412;51.206;6.888;2022-10-17T04:28:29;17.40;99.90
5246;DHT22;54412;51.206;6.888;2022-10-17T04:31:08;17.40;99.90
5246;DHT22;54412;51.206;6.888;2022-10-17T04:33:36;17.40;99.90
5246;DHT22;54412;51.206;6.888;2022-10-17T04:36:07;17.50;99.90
5246;DHT22;54412;51.206;6.888;2022-10-17T04:38:37;17.50;99.90
5246;DHT22;54412;51.206;6.888;2022-10-17T04:41:06;17.50;99.90
5246;DHT22;54412;51.206;6.888;2022-10-17T04:43:34;17.50;99.90
5246;DHT22;54412;51.206;6.888;2022-10-17T04:46:03;17.50;99.90
5246;DHT22;54412;51.206;6.888;2022-10-17T04:48:31;17.50;99.90
5246;DHT22;54412;51.206;6.888;2022-10-17T04:51:02;17.60;99.90
5246;DHT22;54412;51.206;6.888;2022-10-17T04:53:31;17.60;99.90
5246;DHT22;54412;51.206;6.888;2022-10-17T04:55:59;17.60;99.90
5246;DHT22;54412;51.206;6.888;2022-10-17T04:58:26;17.50;99.90
5246;DHT22;54412;51.206;6.888;2022-10-17T05:00:54;17.50;99.90
5246;DHT22;54412;51.206;6.888;2022-10-17T05:03:20;17.50;99.90
5246;DHT22;54412;51.206;6.888;2022-10-17T05:05:45;17.50;99.90
5246;DHT22;54412;51.206;6.888;2022-10-17T05:08:11;17.40;99.90
5246;DHT22;54412;51.206;6.888;2022-10-17T05:10:42;17.40;99.90
5246;DHT22;54412;51.206;6.888;2022-10-17T05:13:10;17.40;99.90
5246;DHT22;54412;51.206;6.888;2022-10-17T05:15:37;17.40;99.90
5246;DHT22;54412;51.206;6.888;2022-10-17T05:18:04;17.40;99.90
5246;DHT22;54412;51.206;6.888;2022-10-17T05:20:30;17.40;99.90
5246;DHT22;54412;51.206;6.888;2022-10-17T05:22:59;17.40;99.90
5246;DHT22;54412;51.206;6.888;2022-10-17T05:25:25;17.40;99.90
5246;DHT22;54412;51.206;6.888;2022-10-17T05:27:51;17.40;99.90
5246;DHT22;54412;51.206;6.888;2022-10-17T05:30:18;17.40;99.90
5246;DHT22;54412;51.206;6.888;2022-10-17T05:32:43;17.40;99.90
5246;DHT22;54412;51.206;6.888;2022-10-17T05:35:09;17.40;99.90
5246;DHT22;54412;51.206;6.888;2022-10-17T05:37:35;17.40;99.90
5246;DHT22;54412;51.206;6.888;2022-10-17T05:40:01;17.50;99.90
5246;DHT22;54412;51.206;6.888;2022-10-17T05:42:26;17.50;99.90
5246;DHT22;54412;51.206;6.888;2022-10-17T05:44:52;17.50;99.90
5246;DHT22;54412;51.206;6.888;2022-10-17T05:47:18;17.40;99.90
5246;DHT22;54412;51.206;6.888;2022-10-17T05:49:43;17.50;99.90
5246;DHT22;54412;51.206;6.888;2022-10-17T05:52:09;17.50;99.90
5246;DHT22;54412;51.206;6.888;2022-10-17T05:54:35;17.40;99.90
5246;DHT22;54412;51.206;6.888;2022-10-17T05:57:00;17.50;99.90
5246;DHT22;54412;51.206;6.888;2022-10-17T05:59:26;17.40;99.90
5246;DHT22;54412;51.206;6.888;2022-10-17T06:01:52;17.50;99.90
5246;DHT22;54412;51.206;6.888;2022-10-17T06:04:19;17.50;99.90
5246;DHT22;54412;51.206;6.888;2022-10-17T06:06:45;17.50;99.90
5246;DHT22;54412;51.206;6.888;2022-10-17T06:09:11;17.50;99.90
5246;DHT22;54412;51.206;6.888;2022-10-17T06:11:36;17.40;99.90
5246;DHT22;54412;51.206;6.888;2022-10-17T06:14:03;17.40;99.90
5246;DHT22;54412;51.206;6.888;2022-10-17T06:16:29;17.50;99.90
5246;DHT22;54412;51.206;6.888;2022-10-17T06:18:55;17.40;99.90
5246;DHT22;54412;51.206;6.888;2022-10-17T06:21:23;17.50;99.90
5246;DHT22;54412;51.206;6.888;2022-10-17T06:23:50;17.50;99.90
5246;DHT22;54412;51.206;6.888;2022-10-17T06:26:17;17.50;99.90
5246;DHT22;54412;51.206;6.888;2022-10-17T06:28:42;17.50;99.90
5246;DHT22;54412;51.206;6.888;2022-10-17T06:31:13;17.50;99.90
5246;DHT22;54412;51.206;6.888;2022-10-17T06:33:40;17.50;99.90
5246;DHT22;54412;51.206;6.888;2022-10-17T06:36:08;17.50;99.90
5246;DHT22;54412;51.206;6.888;2022-10-17T06:38:36;17.50;99.90
5246;DHT22;54412;51.206;6.888;2022-10-17T06:41:11;17.60;99.90
5246;DHT22;54412;51.206;6.888;2022-10-17T06:43:40;17.50;99.90
5246;DHT22;54412;51.206;6.888;2022-10-17T06:46:17;17.50;99.90
5246;DHT22;54412;51.206;6.888;2022-10-17T06:48:43;17.50;99.90
5246;DHT22;54412;51.206;6.888;2022-10-17T06:51:10;17.50;99.90
5246;DHT22;54412;51.206;6.888;2022-10-17T06:53:37;17.50;99.90
5246;DHT22;54412;51.206;6.888;2022-10-17T06:56:06;17.50;99.90
5246;DHT22;54412;51.206;6.888;2022-10-17T06:58:35;17.50;99.90
5246;DHT22;54412;51.206;6.888;2022-10-17T07:01:08;17.50;99.90
5246;DHT22;54412;51.206;6.888;2022-10-17T07:03:37;17.50;99.90
5246;DHT22;54412;51.206;6.888;2022-10-17T07:06:04;17.50;99.90
5246;DHT22;54412;51.206;6.888;2022-10-17T07:08:29;17.50;99.90
5246;DHT22;54412;51.206;6.888;2022-10-17T07:10:55;17.60;99.90
5246;DHT22;54412;51.206;6.888;2022-10-17T07:13:22;17.60;99.90
5246;DHT22;54412;51.206;6.888;2022-10-17T07:15:48;17.60;99.90
5246;DHT22;54412;51.206;6.888;2022-10-17T07:18:14;17.70;99.90
5246;DHT22;54412;51.206;6.888;2022-10-17T07:20:39;17.70;99.90
5246;DHT22;54412;51.206;6.888;2022-10-17T07:23:06;17.70;99.90
5246;DHT22;54412;51.206;6.888;2022-10-17T07:25:32;17.70;99.90
5246;DHT22;54412;51.206;6.888;2022-10-17T07:27:57;17.80;99.90
5246;DHT22;54412;51.206;6.888;2022-10-17T07:30:24;17.80;99.90
5246;DHT22;54412;51.206;6.888;2022-10-17T07:32:52;17.80;99.90
5246;DHT22;54412;51.206;6.888;2022-10-17T07:35:18;17.70;99.90
5246;DHT22;54412;51.206;6.888;2022-10-17T07:37:44;17.80;99.90
5246;DHT22;54412;51.206;6.888;2022-10-17T07:40:10;17.80;99.90
5246;DHT22;54412;51.206;6.888;2022-10-17T07:42:36;17.80;99.90
5246;DHT22;54412;51.206;6.888;2022-10-17T07:45:03;17.80;99.90
5246;DHT22;54412;51.206;6.888;2022-10-17T07:47:29;17.90;99.90
5246;DHT22;54412;51.206;6.888;2022-10-17T07:49:56;17.90;99.90
5246;DHT22;54412;51.206;6.888;2022-10-17T07:52:22;18.00;99.90
5246;DHT22;54412;51.206;6.888;2022-10-17T07:54:48;18.10;99.90
5246;DHT22;54412;51.206;6.888;2022-10-17T07:57:13;18.20;99.90
5246;DHT22;54412;51.206;6.888;2022-10-17T07:59:39;18.30;99.90
5246;DHT22;54412;51.206;6.888;2022-10-17T08:02:05;18.40;99.90
5246;DHT22;54412;51.206;6.888;2022-10-17T08:04:32;18.50;99.90
5246;DHT22;54412;51.206;6.888;2022-10-17T08:06:59;18.60;99.90
5246;DHT22;54412;51.206;6.888;2022-10-17T08:09:25;18.70;99.90
5246;DHT22;54412;51.206;6.888;2022-10-17T08:11:50;18.80;99.90
5246;DHT22;54412;51.206;6.888;2022-10-17T08:14:16;18.90;99.90
5246;DHT22;54412;51.206;6.888;2022-10-17T08:16:42;19.00;99.90
5246;DHT22;54412;51.206;6.888;2022-10-17T08:19:08;19.10;99.90
5246;DHT22;54412;51.206;6.888;2022-10-17T08:21:36;19.30;99.90
5246;DHT22;54412;51.206;6.888;2022-10-17T08:24:03;19.30;99.90
5246;DHT22;54412;51.206;6.888;2022-10-17T08:26:29;19.40;99.90
5246;DHT22;54412;51.206;6.888;2022-10-17T08:28:55;19.40;99.90
5246;DHT22;54412;51.206;6.888;2022-10-17T08:31:21;19.40;99.90
5246;DHT22;54412;51.206;6.888;2022-10-17T08:33:48;19.60;99.90
5246;DHT22;54412;51.206;6.888;2022-10-17T08:36:16;19.70;99.90
5246;DHT22;54412;51.206;6.888;2022-10-17T08:38:44;19.80;99.90
5246;DHT22;54412;51.206;6.888;2022-10-17T08:47:09;19.90;99.90
5246;DHT22;54412;51.206;6.888;2022-10-17T08:49:48;19.90;99.90
5246;DHT22;54412;51.206;6.888;2022-10-17T08:55:13;19.90;99.90
5246;DHT22;54412;51.206;6.888;2022-10-17T08:57:42;19.80;99.90
5246;DHT22;54412;51.206;6.888;2022-10-17T09:00:19;19.70;99.90
5246;DHT22;54412;51.206;6.888;2022-10-17T09:18:33;20.00;99.90
5246;DHT22;54412;51.206;6.888;2022-10-17T09:20:38;19.90;99.90
5246;DHT22;54412;51.206;6.888;2022-10-17T09:23:22;19.80;99.90
5246;DHT22;54412;51.206;6.888;2022-10-17T09:25:54;19.70;99.90
5246;DHT22;54412;51.206;6.888;2022-10-17T09:28:34;19.70;99.90
5246;DHT22;54412;51.206;6.888;2022-10-17T09:31:36;19.70;99.90
5246;DHT22;54412;51.206;6.888;2022-10-17T09:34:09;19.60;99.90
5246;DHT22;54412;51.206;6.888;2022-10-17T09:36:37;19.60;99.90
5246;DHT22;54412;51.206;6.888;2022-10-17T09:39:24;19.60;99.90
5246;DHT22;54412;51.206;6.888;2022-10-17T09:41:57;19.50;99.90
5246;DHT22;54412;51.206;6.888;2022-10-17T09:50:12;19.40;99.90
5246;DHT22;54412;51.206;6.888;2022-10-17T09:52:45;19.40;99.90
5246;DHT22;54412;51.206;6.888;2022-10-17T09:55:25;19.30;99.90
5246;DHT22;54412;51.206;6.888;2022-10-17T09:57:59;19.40;99.90
5246;DHT22;54412;51.206;6.888;2022-10-17T10:00:35;19.30;99.90
5246;DHT22;54412;51.206;6.888;2022-10-17T10:03:25;19.30;99.90
5246;DHT22;54412;51.206;6.888;2022-10-17T10:06:08;19.30;99.90
5246;DHT22;54412;51.206;6.888;2022-10-17T10:08:52;19.30;99.90
5246;DHT22;54412;51.206;6.888;2022-10-17T10:11:25;19.30;99.90
5246;DHT22;54412;51.206;6.888;2022-10-17T10:14:32;19.30;99.90
5246;DHT22;54412;51.206;6.888;2022-10-17T10:17:02;19.30;99.90
5246;DHT22;54412;51.206;6.888;2022-10-17T10:19:33;19.30;99.90
5246;DHT22;54412;51.206;6.888;2022-10-17T10:22:03;19.30;99.90
5246;DHT22;54412;51.206;6.888;2022-10-17T10:24:30;19.30;99.90
5246;DHT22;54412;51.206;6.888;2022-10-17T10:26:59;19.30;99.90
5246;DHT22;54412;51.206;6.888;2022-10-17T10:29:30;19.30;99.90
5246;DHT22;54412;51.206;6.888;2022-10-17T10:32:21;19.30;99.90
5246;DHT22;54412;51.206;6.888;2022-10-17T10:35:17;19.30;99.90
5246;DHT22;54412;51.206;6.888;2022-10-17T10:37:56;19.30;99.90
5246;DHT22;54412;51.206;6.888;2022-10-17T10:40:35;19.30;99.90
5246;DHT22;54412;51.206;6.888;2022-10-17T10:45:59;19.30;99.90
5246;DHT22;54412;51.206;6.888;2022-10-17T10:48:33;19.30;99.90
5246;DHT22;54412;51.206;6.888;2022-10-17T10:51:04;19.30;99.90
5246;DHT22;54412;51.206;6.888;2022-10-17T10:56:56;19.30;99.90
5246;DHT22;54412;51.206;6.888;2022-10-17T10:59:59;19.40;99.90
5246;DHT22;54412;51.206;6.888;2022-10-17T11:05:39;19.30;99.90
5246;DHT22;54412;51.206;6.888;2022-10-17T11:08:25;19.30;99.90
5246;DHT22;54412;51.206;6.888;2022-10-17T11:14:12;19.30;99.90
5246;DHT22;54412;51.206;6.888;2022-10-17T11:17:38;19.30;99.90
5246;DHT22;54412;51.206;6.888;2022-10-17T11:19:58;19.30;99.90
5246;DHT22;54412;51.206;6.888;2022-10-17T11:22:35;19.30;99.90
5246;DHT22;54412;51.206;6.888;2022-10-17T11:25:19;19.30;99.90
5246;DHT22;54412;51.206;6.888;2022-10-17T11:27:53;19.30;99.90
5246;DHT22;54412;51.206;6.888;2022-10-17T11:30:20;19.30;99.90
5246;DHT22;54412;51.206;6.888;2022-10-17T11:32:58;19.30;99.90
5246;DHT22;54412;51.206;6.888;2022-10-17T11:35:40;19.30;99.90
5246;DHT22;54412;51.206;6.888;2022-10-17T11:38:18;19.30;99.90
5246;DHT22;54412;51.206;6.888;2022-10-17T11:40:51;19.30;99.90
5246;DHT22;54412;51.206;6.888;2022-10-17T11:43:26;19.40;99.90
5246;DHT22;54412;51.206;6.888;2022-10-17T11:46:04;19.30;99.90
5246;DHT22;54412;51.206;6.888;2022-10-17T11:48:44;19.30;99.90
5246;DHT22;54412;51.206;6.888;2022-10-17T11:51:18;19.30;99.90
5246;DHT22;54412;51.206;6.888;2022-10-17T12:08:22;19.40;99.90
5246;DHT22;54412;51.206;6.888;2022-10-17T12:22:49;19.50;99.90
5246;DHT22;54412;51.206;6.888;2022-10-17T12:25:22;19.40;99.90
5246;DHT22;54412;51.206;6.888;2022-10-17T12:28:09;19.50;99.90
5246;DHT22;54412;51.206;6.888;2022-10-17T12:31:01;19.60;99.90
5246;DHT22;54412;51.206;6.888;2022-10-17T12:33:34;19.50;99.90
5246;DHT22;54412;51.206;6.888;2022-10-17T12:38:43;19.50;99.90
5246;DHT22;54412;51.206;6.888;2022-10-17T12:41:09;19.50;99.90
5246;DHT22;54412;51.206;6.888;2022-10-17T12:43:36;19.50;99.90
5246;DHT22;54412;51.206;6.888;2022-10-17T12:46:09;19.50;99.90
5246;DHT22;54412;51.206;6.888;2022-10-17T12:51:16;19.40;99.90
5246;DHT22;54412;51.206;6.888;2022-10-17T12:54:00;19.40;99.90
5246;DHT22;54412;51.206;6.888;2022-10-17T12:56:44;19.40;99.90
5246;DHT22;54412;51.206;6.888;2022-10-17T12:59:19;19.40;99.90
5246;DHT22;54412;51.206;6.888;2022-10-17T13:01:51;19.40;99.90
5246;DHT22;54412;51.206;6.888;2022-10-17T13:04:21;19.40;99.90
5246;DHT22;54412;51.206;6.888;2022-10-17T13:06:53;19.40;99.90
5246;DHT22;54412;51.206;6.888;2022-10-17T13:09:29;19.30;99.90
5246;DHT22;54412;51.206;6.888;2022-10-17T13:12:00;19.40;99.90
5246;DHT22;54412;51.206;6.888;2022-10-17T13:14:30;19.40;99.90
5246;DHT22;54412;51.206;6.888;2022-10-17T13:17:00;19.30;99.90
5246;DHT22;54412;51.206;6.888;2022-10-17T13:19:41;19.30;99.90
5246;DHT22;54412;51.206;6.888;2022-10-17T13:22:23;19.30;99.90
5246;DHT22;54412;51.206;6.888;2022-10-17T13:25:04;19.30;99.90
5246;DHT22;54412;51.206;6.888;2022-10-17T13:27:42;19.30;99.90
5246;DHT22;54412;51.206;6.888;2022-10-17T13:30:29;19.40;99.90
5246;DHT22;54412;51.206;6.888;2022-10-17T13:32:57;19.30;99.90
5246;DHT22;54412;51.206;6.888;2022-10-17T13:35:32;19.30;99.90
5246;DHT22;54412;51.206;6.888;2022-10-17T13:38:01;19.30;99.90
5246;DHT22;54412;51.206;6.888;2022-10-17T13:40:38;19.30;99.90
5246;DHT22;54412;51.206;6.888;2022-10-17T13:43:14;19.30;99.90
5246;DHT22;54412;51.206;6.888;2022-10-17T13:45:55;19.30;99.90
5246;DHT22;54412;51.206;6.888;2022-10-17T13:48:27;19.30;99.90
5246;DHT22;54412;51.206;6.888;2022-10-17T13:50:59;19.30;99.90
5246;DHT22;54412;51.206;6.888;2022-10-17T13:53:36;19.30;99.90
5246;DHT22;54412;51.206;6.888;2022-10-17T13:58:45;19.30;99.90
5246;DHT22;54412;51.206;6.888;2022-10-17T14:01:12;19.30;99.90
5246;DHT22;54412;51.206;6.888;2022-10-17T14:03:46;19.40;99.90
5246;DHT22;54412;51.206;6.888;2022-10-17T14:06:17;19.40;99.90
5246;DHT22;54412;51.206;6.888;2022-10-17T14:08:49;19.30;99.90
5246;DHT22;54412;51.206;6.888;2022-10-17T14:11:44;19.30;99.90
5246;DHT22;54412;51.206;6.888;2022-10-17T14:14:19;19.40;99.90
5246;DHT22;54412;51.206;6.888;2022-10-17T14:16:47;19.40;99.90
5246;DHT22;54412;51.206;6.888;2022-10-17T14:19:31;19.40;99.90
5246;DHT22;54412;51.206;6.888;2022-10-17T14:24:48;19.40;99.90
5246;DHT22;54412;51.206;6.888;2022-10-17T14:29:57;19.50;99.90
5246;DHT22;54412;51.206;6.888;2022-10-17T14:32:30;19.50;99.90
5246;DHT22;54412;51.206;6.888;2022-10-17T14:35:00;19.50;99.90
5246;DHT22;54412;51.206;6.888;2022-10-17T14:40:15;19.50;99.90
5246;DHT22;54412;51.206;6.888;2022-10-17T14:42:43;19.50;99.90
5246;DHT22;54412;51.206;6.888;2022-10-17T14:45:14;19.40;99.90
5246;DHT22;54412;51.206;6.888;2022-10-17T14:47:54;19.40;99.90
5246;DHT22;54412;51.206;6.888;2022-10-17T14:50:30;19.40;99.90
5246;DHT22;54412;51.206;6.888;2022-10-17T14:55:35;19.40;99.90
5246;DHT22;54412;51.206;6.888;2022-10-17T14:58:25;19.40;99.90
5246;DHT22;54412;51.206;6.888;2022-10-17T15:00:56;19.40;99.90
5246;DHT22;54412;51.206;6.888;2022-10-17T15:03:23;19.40;99.90
5246;DHT22;54412;51.206;6.888;2022-10-17T15:05:50;19.40;99.90
5246;DHT22;54412;51.206;6.888;2022-10-17T15:08:20;19.40;99.90
5246;DHT22;54412;51.206;6.888;2022-10-17T15:10:49;19.40;99.90
5246;DHT22;54412;51.206;6.888;2022-10-17T15:13:15;19.40;99.90
5246;DHT22;54412;51.206;6.888;2022-10-17T15:15:42;19.40;99.90
5246;DHT22;54412;51.206;6.888;2022-10-17T15:18:10;19.40;99.90
5246;DHT22;54412;51.206;6.888;2022-10-17T15:20:37;19.40;99.90
5246;DHT22;54412;51.206;6.888;2022-10-17T15:23:03;19.40;99.90
5246;DHT22;54412;51.206;6.888;2022-10-17T15:25:30;19.30;99.90
5246;DHT22;54412;51.206;6.888;2022-10-17T15:27:57;19.30;99.90
5246;DHT22;54412;51.206;6.888;2022-10-17T15:32:52;19.30;99.90
5246;DHT22;54412;51.206;6.888;2022-10-17T15:35:18;19.20;99.90
5246;DHT22;54412;51.206;6.888;2022-10-17T15:37:45;19.20;99.90
5246;DHT22;54412;51.206;6.888;2022-10-17T15:40:24;19.20;99.90
5246;DHT22;54412;51.206;6.888;2022-10-17T15:42:53;19.10;99.90
5246;DHT22;54412;51.206;6.888;2022-10-17T15:45:21;19.10;99.90
5246;DHT22;54412;51.206;6.888;2022-10-17T15:48:03;19.10;99.90
5246;DHT22;54412;51.206;6.888;2022-10-17T15:50:30;19.10;99.90
5246;DHT22;54412;51.206;6.888;2022-10-17T15:52:57;19.10;99.90
5246;DHT22;54412;51.206;6.888;2022-10-17T15:55:23;19.00;99.90
5246;DHT22;54412;51.206;6.888;2022-10-17T15:57:49;19.00;99.90
5246;DHT22;54412;51.206;6.888;2022-10-17T16:00:24;19.00;99.90
5246;DHT22;54412;51.206;6.888;2022-10-17T16:02:50;19.00;99.90
5246;DHT22;54412;51.206;6.888;2022-10-17T16:05:18;19.00;99.90
5246;DHT22;54412;51.206;6.888;2022-10-17T16:07:51;18.90;99.90
5246;DHT22;54412;51.206;6.888;2022-10-17T16:10:18;18.80;99.90
5246;DHT22;54412;51.206;6.888;2022-10-17T16:12:45;18.80;99.90
5246;DHT22;54412;51.206;6.888;2022-10-17T16:15:19;18.70;99.90
5246;DHT22;54412;51.206;6.888;2022-10-17T16:17:55;18.70;99.90
5246;DHT22;54412;51.206;6.888;2022-10-17T16:20:23;18.70;99.90
5246;DHT22;54412;51.206;6.888;2022-10-17T16:22:50;18.70;99.90
5246;DHT22;54412;51.206;6.888;2022-10-17T16:25:20;18.60;99.90
5246;DHT22;54412;51.206;6.888;2022-10-17T16:27:50;18.60;99.90
5246;DHT22;54412;51.206;6.888;2022-10-17T16:30:18;18.60;99.90
5246;DHT22;54412;51.206;6.888;2022-10-17T16:32:45;18.50;99.90
5246;DHT22;54412;51.206;6.888;2022-10-17T16:35:28;18.50;99.90
5246;DHT22;54412;51.206;6.888;2022-10-17T16:37:54;18.50;99.90
5246;DHT22;54412;51.206;6.888;2022-10-17T16:40:22;18.40;99.90
5246;DHT22;54412;51.206;6.888;2022-10-17T16:42:47;18.40;99.90
5246;DHT22;54412;51.206;6.888;2022-10-17T16:45:21;18.40;99.90
5246;DHT22;54412;51.206;6.888;2022-10-17T16:47:48;18.40;99.90
5246;DHT22;54412;51.206;6.888;2022-10-17T16:50:15;18.50;99.90
5246;DHT22;54412;51.206;6.888;2022-10-17T16:52:41;18.50;99.90
5246;DHT22;54412;51.206;6.888;2022-10-17T16:55:07;18.50;99.90
5246;DHT22;54412;51.206;6.888;2022-10-17T16:57:34;18.50;99.90
5246;DHT22;54412;51.206;6.888;2022-10-17T16:59:59;18.50;99.90
5246;DHT22;54412;51.206;6.888;2022-10-17T17:02:25;18.50;99.90
5246;DHT22;54412;51.206;6.888;2022-10-17T17:04:51;18.40;99.90
5246;DHT22;54412;51.206;6.888;2022-10-17T17:07:17;18.40;99.90
5246;DHT22;54412;51.206;6.888;2022-10-17T17:09:44;18.30;99.90
5246;DHT22;54412;51.206;6.888;2022-10-17T17:12:09;18.20;99.90
5246;DHT22;54412;51.206;6.888;2022-10-17T17:14:35;18.20;99.90
5246;DHT22;54412;51.206;6.888;2022-10-17T17:17:03;18.10;99.90
5246;DHT22;54412;51.206;6.888;2022-10-17T17:19:28;18.20;99.90
5246;DHT22;54412;51.206;6.888;2022-10-17T17:21:54;18.20;99.90
5246;DHT22;54412;51.206;6.888;2022-10-17T17:24:20;18.20;99.90
5246;DHT22;54412;51.206;6.888;2022-10-17T17:26:50;18.10;99.90
5246;DHT22;54412;51.206;6.888;2022-10-17T17:29:17;18.10;99.90
5246;DHT22;54412;51.206;6.888;2022-10-17T17:31:42;18.10;99.90
5246;DHT22;54412;51.206;6.888;2022-10-17T17:34:08;18.10;99.90
5246;DHT22;54412;51.206;6.888;2022-10-17T17:36:36;18.10;99.90
5246;DHT22;54412;51.206;6.888;2022-10-17T17:39:05;18.10;99.90
5246;DHT22;54412;51.206;6.888;2022-10-17T17:41:33;18.10;99.90
5246;DHT22;54412;51.206;6.888;2022-10-17T17:44:00;18.10;99.90
5246;DHT22;54412;51.206;6.888;2022-10-17T17:46:27;18.10;99.90
5246;DHT22;54412;51.206;6.888;2022-10-17T17:48:54;18.10;99.90
5246;DHT22;54412;51.206;6.888;2022-10-17T17:51:22;18.10;99.90
5246;DHT22;54412;51.206;6.888;2022-10-17T17:53:50;18.10;99.90
5246;DHT22;54412;51.206;6.888;2022-10-17T17:56:22;18.10;99.90
5246;DHT22;54412;51.206;6.888;2022-10-17T17:58:57;18.10;99.90
5246;DHT22;54412;51.206;6.888;2022-10-17T18:01:31;18.10;99.90
5246;DHT22;54412;51.206;6.888;2022-10-17T18:04:03;18.10;99.90
5246;DHT22;54412;51.206;6.888;2022-10-17T18:06:30;18.10;99.90
5246;DHT22;54412;51.206;6.888;2022-10-17T18:08:57;18.10;99.90
5246;DHT22;54412;51.206;6.888;2022-10-17T18:11:24;18.10;99.90
5246;DHT22;54412;51.206;6.888;2022-10-17T18:14:04;18.10;99.90